createdAt,value
2018-07-11T00:02:31.604Z,16.00
2018-07-11T00:05:05.332Z,16.00
2018-07-11T00:07:39.017Z,16.00
2018-07-11T00:10:12.740Z,15.90
2018-07-11T00:12:46.432Z,15.90
2018-07-11T00:15:20.265Z,15.90
2018-07-11T00:17:54.094Z,15.90
2018-07-11T00:20:28.491Z,15.80
2018-07-11T00:23:02.184Z,15.80
2018-07-11T00:25:35.984Z,15.80
2018-07-11T00:28:09.664Z,15.80
2018-07-11T00:30:44.308Z,15.70
2018-07-11T00:33:18.166Z,15.70
2018-07-11T00:35:52.884Z,15.70
2018-07-11T00:38:28.169Z,15.70
2018-07-11T00:41:02.030Z,15.70
2018-07-11T00:43:35.775Z,15.70
2018-07-11T00:46:10.404Z,15.70
2018-07-11T00:48:44.202Z,15.60
2018-07-11T00:51:18.058Z,15.60
2018-07-11T00:53:51.892Z,15.60
2018-07-11T00:56:25.624Z,15.60
2018-07-11T00:58:59.492Z,15.60
2018-07-11T01:01:33.278Z,15.60
2018-07-11T01:04:07.080Z,15.60
2018-07-11T01:06:40.844Z,15.60
2018-07-11T01:09:14.476Z,15.60
2018-07-11T01:11:48.107Z,15.70
2018-07-11T01:14:21.876Z,15.70
2018-07-11T01:16:55.576Z,15.70
2018-07-11T01:19:30.941Z,15.70
2018-07-11T01:22:05.540Z,15.80
2018-07-11T01:24:39.244Z,15.70
2018-07-11T01:27:13.110Z,15.70
2018-07-11T01:29:46.886Z,15.60
2018-07-11T01:32:20.684Z,15.60
2018-07-11T01:34:54.377Z,15.60
2018-07-11T01:37:28.184Z,15.60
2018-07-11T01:40:01.976Z,15.60
2018-07-11T01:42:37.968Z,15.60
2018-07-11T01:45:11.744Z,15.50
2018-07-11T01:47:45.613Z,15.50
2018-07-11T01:50:19.457Z,15.60
2018-07-11T01:52:53.287Z,15.70
2018-07-11T01:55:27.139Z,15.70
2018-07-11T01:58:00.916Z,15.70
2018-07-11T02:00:35.535Z,15.80
2018-07-11T02:03:09.460Z,15.70
2018-07-11T02:05:43.828Z,15.80
2018-07-11T02:08:18.260Z,15.80
2018-07-11T02:10:52.128Z,15.70
2018-07-11T02:13:25.943Z,15.70
2018-07-11T02:16:00.561Z,15.80
2018-07-11T02:18:34.199Z,15.70
2018-07-11T02:21:08.849Z,15.80
2018-07-11T02:23:42.571Z,15.80
2018-07-11T02:26:16.450Z,15.80
2018-07-11T02:28:50.372Z,15.80
2018-07-11T02:31:24.221Z,15.80
2018-07-11T02:33:58.057Z,15.80
2018-07-11T02:36:32.664Z,15.80
2018-07-11T02:39:06.512Z,15.80
2018-07-11T02:41:40.323Z,15.80
2018-07-11T02:44:14.937Z,15.70
2018-07-11T02:46:48.773Z,15.70
2018-07-11T02:49:23.264Z,15.70
2018-07-11T02:51:56.963Z,15.70
2018-07-11T02:54:30.801Z,15.70
2018-07-11T02:57:04.617Z,15.80
2018-07-11T02:59:38.471Z,15.80
2018-07-11T03:02:12.321Z,15.90
2018-07-11T03:04:45.968Z,16.00
2018-07-11T03:07:20.513Z,16.00
2018-07-11T03:09:54.329Z,16.00
2018-07-11T03:12:28.005Z,16.00
2018-07-11T03:15:02.666Z,15.90
2018-07-11T03:17:36.392Z,15.90
2018-07-11T03:20:10.276Z,15.90
2018-07-11T03:22:44.885Z,15.90
2018-07-11T03:25:19.500Z,15.90
2018-07-11T03:27:53.980Z,16.00
2018-07-11T03:30:27.712Z,16.00
2018-07-11T03:33:01.445Z,16.00
2018-07-11T03:35:35.138Z,16.00
2018-07-11T03:38:09.725Z,16.00
2018-07-11T03:40:44.321Z,16.10
2018-07-11T03:43:18.800Z,16.20
2018-07-11T03:45:53.359Z,16.30
2018-07-11T03:48:27.833Z,16.30
2018-07-11T03:51:01.554Z,16.30
2018-07-11T03:53:36.192Z,16.10
2018-07-11T03:56:10.141Z,16.10
2018-07-11T03:58:43.760Z,16.00
2018-07-11T04:01:17.468Z,16.10
2018-07-11T04:03:51.347Z,16.00
2018-07-11T04:06:25.248Z,16.10
2018-07-11T04:08:59.872Z,16.20
2018-07-11T04:11:33.562Z,16.20
2018-07-11T04:14:07.494Z,16.20
2018-07-11T04:16:41.876Z,16.20
2018-07-11T04:19:15.793Z,16.10
2018-07-11T04:21:50.499Z,16.20
2018-07-11T04:24:24.232Z,16.20
2018-07-11T04:26:57.934Z,16.20
2018-07-11T04:29:31.893Z,16.30
2018-07-11T04:32:05.663Z,16.30
2018-07-11T04:34:39.579Z,16.40
2018-07-11T04:37:13.292Z,16.30
2018-07-11T04:39:47.152Z,16.30
2018-07-11T04:42:20.840Z,16.30
2018-07-11T04:44:54.577Z,16.30
2018-07-11T04:47:29.014Z,16.20
2018-07-11T04:50:02.783Z,16.20
2018-07-11T04:52:37.371Z,16.20
2018-07-11T04:55:11.037Z,16.20
2018-07-11T04:57:44.826Z,16.30
2018-07-11T05:00:19.417Z,16.40
2018-07-11T05:02:53.861Z,16.40
2018-07-11T05:05:27.846Z,16.40
2018-07-11T05:08:01.737Z,16.30
2018-07-11T05:10:35.580Z,16.40
2018-07-11T05:13:10.279Z,16.80
2018-07-11T05:15:44.113Z,16.80
2018-07-11T05:18:18.220Z,16.80
2018-07-11T05:20:52.056Z,17.00
2018-07-11T05:23:26.625Z,17.00
2018-07-11T05:26:00.364Z,17.00
2018-07-11T05:28:34.336Z,17.00
2018-07-11T05:31:08.359Z,17.10
2018-07-11T05:33:42.004Z,17.30
2018-07-11T05:36:15.840Z,17.30
2018-07-11T05:38:50.327Z,17.10
2018-07-11T05:41:25.052Z,17.10
2018-07-11T05:43:58.804Z,17.10
2018-07-11T05:46:32.559Z,17.00
2018-07-11T05:49:08.033Z,16.70
2018-07-11T05:51:41.921Z,16.60
2018-07-11T05:54:15.789Z,16.50
2018-07-11T05:56:49.568Z,16.60
2018-07-11T05:59:23.467Z,16.70
2018-07-11T06:01:58.115Z,16.90
2018-07-11T06:04:31.872Z,16.90
2018-07-11T06:07:05.788Z,17.00
2018-07-11T06:09:39.706Z,17.10
2018-07-11T06:12:14.336Z,17.30
2018-07-11T06:14:48.154Z,17.40
2018-07-11T06:17:22.384Z,17.40
2018-07-11T06:19:56.130Z,17.40
2018-07-11T06:22:30.554Z,17.30
2018-07-11T06:25:04.308Z,17.30
2018-07-11T06:27:38.100Z,17.20
2018-07-11T06:30:12.229Z,17.30
2018-07-11T06:32:45.886Z,17.20
2018-07-11T06:35:20.533Z,17.30
2018-07-11T06:37:54.325Z,17.30
2018-07-11T06:40:28.076Z,17.40
2018-07-11T06:43:02.644Z,17.40
2018-07-11T06:45:36.851Z,17.40
2018-07-11T06:48:11.480Z,17.60
2018-07-11T06:50:46.081Z,17.70
2018-07-11T06:53:20.886Z,17.70
2018-07-11T06:55:54.719Z,17.70
2018-07-11T06:58:28.565Z,17.70
2018-07-11T07:01:02.449Z,17.50
2018-07-11T07:03:36.907Z,17.50
2018-07-11T07:06:10.519Z,17.50
2018-07-11T07:08:45.132Z,18.00
2018-07-11T07:11:19.766Z,18.30
2018-07-11T07:13:53.521Z,18.30
2018-07-11T07:16:27.312Z,18.30
2018-07-11T07:19:01.209Z,18.10
2018-07-11T07:21:34.966Z,18.40
2018-07-11T07:24:08.676Z,18.40
2018-07-11T07:26:42.432Z,18.20
2018-07-11T07:29:17.230Z,18.10
2018-07-11T07:31:51.825Z,18.20
2018-07-11T07:34:25.548Z,18.10
2018-07-11T07:36:59.364Z,17.70
2018-07-11T07:39:33.135Z,17.70
2018-07-11T07:42:07.774Z,18.40
2018-07-11T07:44:41.573Z,18.40
2018-07-11T07:47:15.425Z,18.50
2018-07-11T07:49:49.248Z,18.50
2018-07-11T07:52:24.552Z,18.40
2018-07-11T07:54:58.204Z,18.40
2018-07-11T07:57:32.804Z,18.40
2018-07-11T08:00:07.384Z,18.50
2018-07-11T08:02:41.493Z,18.50
2018-07-11T08:05:15.242Z,18.30
2018-07-11T08:07:49.060Z,18.60
2018-07-11T08:10:25.201Z,18.80
2018-07-11T08:12:59.105Z,18.90
2018-07-11T08:15:32.945Z,19.00
2018-07-11T08:18:07.544Z,19.50
2018-07-11T08:20:41.255Z,19.50
2018-07-11T08:26:26.341Z,19.40
2018-07-11T08:29:00.135Z,20.20
2018-07-11T08:31:33.805Z,21.40
2018-07-11T08:34:07.604Z,22.20
2018-07-11T08:36:42.279Z,22.50
2018-07-11T08:39:15.949Z,22.50
2018-07-11T08:41:49.648Z,22.80
2018-07-11T08:44:24.204Z,23.00
2018-07-11T08:46:58.798Z,22.30
2018-07-11T08:49:33.461Z,21.30
2018-07-11T08:52:07.147Z,21.30
2018-07-11T08:54:40.987Z,20.30
2018-07-11T08:57:14.800Z,19.70
2018-07-11T08:59:48.596Z,19.30
2018-07-11T09:02:23.096Z,19.20
2018-07-11T09:04:56.906Z,19.10
2018-07-11T09:07:31.518Z,19.10
2018-07-11T09:10:05.211Z,19.10
2018-07-11T09:12:38.922Z,19.10
2018-07-11T09:15:12.818Z,19.30
2018-07-11T09:17:46.777Z,19.40
2018-07-11T09:20:20.384Z,19.80
2018-07-11T09:22:54.273Z,19.60
2018-07-11T09:25:28.233Z,19.80
2018-07-11T09:28:02.096Z,19.60
2018-07-11T09:30:36.711Z,20.20
2018-07-11T09:33:11.316Z,20.60
2018-07-11T09:35:45.111Z,20.60
2018-07-11T09:38:18.920Z,21.00
2018-07-11T09:40:52.752Z,21.20
2018-07-11T09:43:26.436Z,21.70
2018-07-11T09:46:00.153Z,22.10
2018-07-11T09:48:34.899Z,22.10
2018-07-11T09:51:08.636Z,22.10
2018-07-11T09:53:43.398Z,23.10
2018-07-11T09:56:17.945Z,22.60
2018-07-11T09:58:51.582Z,22.50
2018-07-11T10:01:26.028Z,23.80
2018-07-11T10:03:59.972Z,23.80
2018-07-11T10:06:34.504Z,23.70
2018-07-11T10:09:08.883Z,23.90
2018-07-11T10:11:42.734Z,23.90
2018-07-11T10:14:16.573Z,24.20
2018-07-11T10:16:50.382Z,24.30
2018-07-11T10:19:24.932Z,22.10
2018-07-11T10:21:59.575Z,21.30
2018-07-11T10:24:33.336Z,21.20
2018-07-11T10:27:07.211Z,21.10
2018-07-11T10:29:41.762Z,20.50
2018-07-11T10:32:15.833Z,20.50
2018-07-11T10:34:50.380Z,20.80
2018-07-11T10:37:24.244Z,20.80
2018-07-11T10:39:58.871Z,20.80
2018-07-11T10:42:32.808Z,20.80
2018-07-11T10:45:06.643Z,20.80
2018-07-11T10:47:40.489Z,20.90
2018-07-11T10:50:14.321Z,20.80
2018-07-11T10:52:48.792Z,21.10
2018-07-11T10:55:22.593Z,21.00
2018-07-11T10:57:56.336Z,20.60
2018-07-11T11:00:36.668Z,20.40
2018-07-11T11:03:04.480Z,20.40
2018-07-11T11:05:39.081Z,20.60
2018-07-11T11:08:12.987Z,20.50
2018-07-11T11:10:47.596Z,20.70
2018-07-11T11:13:22.144Z,20.40
2018-07-11T11:15:55.989Z,20.40
2018-07-11T11:18:29.681Z,20.40
2018-07-11T11:21:03.516Z,20.30
2018-07-11T11:23:38.090Z,19.90
2018-07-11T11:26:12.683Z,20.00
2018-07-11T11:28:46.565Z,20.00
2018-07-11T11:31:20.443Z,19.70
2018-07-11T11:33:54.159Z,19.80
2018-07-11T11:36:28.570Z,20.00
2018-07-11T11:39:02.363Z,19.90
2018-07-11T11:41:36.798Z,20.10
2018-07-11T11:44:10.398Z,20.10
2018-07-11T11:46:44.173Z,20.50
2018-07-11T11:49:17.954Z,20.90
2018-07-11T11:51:51.713Z,21.00
2018-07-11T11:54:25.471Z,20.60
2018-07-11T11:56:59.369Z,20.60
2018-07-11T11:59:33.169Z,21.10
2018-07-11T12:02:06.948Z,21.50
2018-07-11T12:04:40.598Z,21.50
2018-07-11T12:07:14.460Z,21.50
2018-07-11T12:09:49.042Z,21.10
2018-07-11T12:12:22.868Z,21.10
2018-07-11T12:14:56.797Z,21.70
2018-07-11T12:17:31.353Z,21.90
2018-07-11T12:20:05.148Z,21.80
2018-07-11T12:22:39.684Z,21.90
2018-07-11T12:25:14.267Z,21.80
2018-07-11T12:27:48.076Z,21.90
2018-07-11T12:30:21.706Z,21.80
2018-07-11T12:32:56.388Z,21.70
2018-07-11T12:35:30.053Z,21.70
2018-07-11T12:38:03.839Z,21.60
2018-07-11T12:40:37.493Z,21.30
2018-07-11T12:43:11.554Z,20.80
2018-07-11T12:45:45.295Z,20.60
2018-07-11T12:51:15.216Z,20.50
2018-07-11T12:53:49.778Z,20.70
2018-07-11T12:56:24.368Z,20.90
2018-07-11T12:58:58.216Z,20.80
2018-07-11T13:01:32.058Z,21.20
2018-07-11T13:04:05.837Z,21.30
2018-07-11T13:06:39.559Z,21.50
2018-07-11T13:09:14.042Z,21.50
2018-07-11T13:11:47.816Z,21.50
2018-07-11T13:14:22.380Z,21.50
2018-07-11T13:16:56.989Z,21.50
2018-07-11T13:19:30.732Z,21.50
2018-07-11T13:22:05.425Z,21.00
2018-07-11T13:24:39.286Z,20.90
2018-07-11T13:27:13.709Z,21.20
2018-07-11T13:29:47.371Z,21.20
2018-07-11T13:32:21.264Z,21.40
2018-07-11T13:34:55.092Z,21.40
2018-07-11T13:37:28.826Z,21.10
2018-07-11T13:40:02.617Z,21.20
2018-07-11T13:42:36.475Z,21.30
2018-07-11T13:45:10.236Z,20.90
2018-07-11T13:47:44.700Z,21.00
2018-07-11T13:50:19.355Z,21.20
2018-07-11T13:52:53.828Z,21.10
2018-07-11T13:55:27.752Z,21.10
2018-07-11T13:58:01.414Z,21.20
2018-07-11T14:00:35.221Z,21.10
2018-07-11T14:03:09.766Z,21.40
2018-07-11T14:05:43.634Z,21.40
2018-07-11T14:08:18.103Z,21.10
2018-07-11T14:10:52.752Z,20.90
2018-07-11T14:13:32.792Z,20.90
2018-07-11T14:16:06.523Z,20.90
2018-07-11T14:18:41.176Z,20.90
2018-07-11T14:21:15.733Z,21.00
2018-07-11T14:23:49.527Z,21.00
2018-07-11T14:26:23.254Z,21.00
2018-07-11T14:28:58.009Z,21.20
2018-07-11T14:31:31.662Z,21.20
2018-07-11T14:34:06.243Z,21.20
2018-07-11T14:36:40.864Z,21.30
2018-07-11T14:39:15.520Z,21.30
2018-07-11T14:41:50.000Z,21.30
2018-07-11T14:44:24.626Z,21.20
2018-07-11T14:46:58.451Z,21.20
2018-07-11T14:49:32.193Z,21.20
2018-07-11T14:52:06.857Z,21.00
2018-07-11T14:54:40.672Z,21.00
2018-07-11T14:57:15.348Z,21.30
2018-07-11T14:59:49.116Z,21.30
2018-07-11T15:02:22.786Z,21.40
2018-07-11T15:04:56.646Z,21.50
2018-07-11T15:07:30.720Z,21.60
2018-07-11T15:10:04.406Z,21.60
2018-07-11T15:12:39.044Z,21.50
2018-07-11T15:15:13.272Z,21.50
2018-07-11T15:17:47.487Z,21.60
2018-07-11T15:20:21.590Z,21.80
2018-07-11T15:22:55.876Z,22.00
2018-07-11T15:25:29.621Z,22.00
2018-07-11T15:28:03.493Z,21.90
2018-07-11T15:30:37.425Z,22.00
2018-07-11T15:33:11.985Z,22.20
2018-07-11T15:35:46.295Z,22.20
2018-07-11T15:38:20.398Z,22.20
2018-07-11T15:40:54.195Z,22.20
2018-07-11T15:43:28.216Z,22.40
2018-07-11T15:46:02.884Z,22.50
2018-07-11T15:48:37.456Z,22.50
2018-07-11T15:51:11.380Z,22.50
2018-07-11T15:53:45.026Z,22.80
2018-07-11T15:56:20.345Z,22.80
2018-07-11T15:58:54.183Z,22.70
2018-07-11T16:01:29.049Z,22.60
2018-07-11T16:04:03.569Z,22.30
2018-07-11T16:06:37.401Z,22.30
2018-07-11T16:09:11.969Z,22.00
2018-07-11T16:11:46.622Z,22.20
2018-07-11T16:14:20.477Z,22.10
2018-07-11T16:16:54.496Z,22.30
2018-07-11T16:19:28.228Z,22.30
2018-07-11T16:22:01.872Z,22.30
2018-07-11T16:24:36.398Z,22.20
2018-07-11T16:27:10.410Z,22.20
2018-07-11T16:29:44.330Z,22.20
2018-07-11T16:32:18.001Z,22.30
2018-07-11T16:34:51.933Z,22.30
2018-07-11T16:37:26.557Z,22.20
2018-07-11T16:40:00.184Z,22.20
2018-07-11T16:42:33.917Z,22.40
2018-07-11T16:45:07.749Z,22.50
2018-07-11T16:47:42.395Z,22.50
2018-07-11T16:50:17.029Z,22.80
2018-07-11T16:52:51.505Z,22.80
2018-07-11T16:55:26.044Z,22.80
2018-07-11T16:57:59.924Z,22.80
2018-07-11T17:00:33.663Z,22.80
2018-07-11T17:03:07.463Z,22.80
2018-07-11T17:05:41.347Z,22.80
2018-07-11T17:08:15.210Z,22.60
2018-07-11T17:10:49.164Z,22.50
2018-07-11T17:13:23.013Z,22.50
2018-07-11T17:15:56.868Z,22.40
2018-07-11T17:18:31.431Z,22.30
2018-07-11T17:21:05.648Z,22.30
2018-07-11T17:23:39.327Z,22.30
2018-07-11T17:26:13.171Z,22.20
2018-07-11T17:28:47.076Z,22.10
2018-07-11T17:31:21.117Z,22.10
2018-07-11T17:33:55.504Z,22.00
2018-07-11T17:36:29.133Z,21.90
2018-07-11T17:39:02.922Z,21.70
2018-07-11T17:41:37.826Z,21.50
2018-07-11T17:44:11.596Z,21.40
2018-07-11T17:46:46.271Z,21.30
2018-07-11T17:49:20.787Z,21.30
2018-07-11T17:51:55.432Z,21.20
2018-07-11T17:54:30.014Z,21.20
2018-07-11T17:57:04.652Z,21.10
2018-07-11T17:59:38.541Z,21.10
2018-07-11T18:02:12.308Z,21.10
2018-07-11T18:04:46.797Z,21.10
2018-07-11T18:07:20.608Z,21.10
2018-07-11T18:09:54.477Z,21.10
2018-07-11T18:12:29.004Z,21.10
2018-07-11T18:15:02.806Z,21.10
2018-07-11T18:17:36.606Z,21.10
2018-07-11T18:20:11.140Z,21.10
2018-07-11T18:22:45.674Z,21.00
2018-07-11T18:25:19.385Z,20.90
2018-07-11T18:27:54.009Z,20.90
2018-07-11T18:30:27.729Z,20.90
2018-07-11T18:33:02.260Z,20.90
2018-07-11T18:35:36.055Z,20.80
2018-07-11T18:38:09.817Z,20.80
2018-07-11T18:40:43.533Z,20.90
2018-07-11T18:43:17.129Z,20.80
2018-07-11T18:45:50.789Z,20.70
2018-07-11T18:48:24.855Z,20.60
2018-07-11T18:50:59.400Z,20.50
2018-07-11T18:53:33.393Z,20.50
2018-07-11T18:56:07.189Z,20.50
2018-07-11T18:58:41.085Z,20.50
2018-07-11T19:01:15.608Z,20.60
2018-07-11T19:03:49.343Z,20.60
2018-07-11T19:06:23.552Z,20.60
2018-07-11T19:08:57.764Z,20.50
2018-07-11T19:11:32.421Z,20.50
2018-07-11T19:14:06.299Z,20.50
2018-07-11T19:16:40.137Z,20.50
2018-07-11T19:19:13.728Z,20.40
2018-07-11T19:21:47.648Z,20.40
2018-07-11T19:24:21.506Z,20.40
2018-07-11T19:26:55.203Z,20.30
2018-07-11T19:29:29.668Z,20.20
2018-07-11T19:32:03.388Z,20.10
2018-07-11T19:34:37.210Z,20.10
2018-07-11T19:37:11.883Z,20.10
2018-07-11T19:39:46.514Z,20.10
2018-07-11T19:42:20.370Z,20.10
2018-07-11T19:44:54.028Z,20.10
2018-07-11T19:47:28.581Z,20.10
2018-07-11T19:50:02.408Z,20.10
2018-07-11T19:52:36.105Z,20.20
2018-07-11T19:55:09.780Z,20.10
2018-07-11T19:57:43.512Z,20.10
2018-07-11T20:00:17.187Z,20.10
2018-07-11T20:02:51.772Z,20.10
2018-07-11T20:05:25.468Z,20.10
2018-07-11T20:08:01.292Z,20.10
2018-07-11T20:10:35.157Z,20.10
2018-07-11T20:13:08.841Z,20.10
2018-07-11T20:15:43.374Z,20.10
2018-07-11T20:18:17.235Z,20.10
2018-07-11T20:20:51.016Z,20.10
2018-07-11T20:23:25.620Z,20.00
2018-07-11T20:25:59.525Z,20.00
2018-07-11T20:28:33.120Z,19.90
2018-07-11T20:31:06.934Z,19.80
2018-07-11T20:33:41.441Z,19.70
2018-07-11T20:36:15.179Z,19.70
2018-07-11T20:38:49.809Z,19.40
2018-07-11T20:41:24.201Z,19.30
2018-07-11T20:43:58.032Z,19.20
2018-07-11T20:46:32.770Z,19.20
2018-07-11T20:49:06.568Z,19.20
2018-07-11T20:51:40.216Z,19.20
2018-07-11T20:54:14.078Z,19.30
2018-07-11T20:56:48.752Z,19.30
2018-07-11T20:59:34.532Z,19.30
2018-07-11T21:02:20.354Z,19.30
2018-07-11T21:04:54.149Z,19.40
2018-07-11T21:07:28.561Z,19.30
2018-07-11T21:10:03.233Z,19.20
2018-07-11T21:12:37.824Z,19.20
2018-07-11T21:15:11.612Z,19.20
2018-07-11T21:17:45.388Z,19.20
2018-07-11T21:20:19.324Z,19.20
2018-07-11T21:22:53.120Z,19.10
2018-07-11T21:25:26.904Z,19.00
2018-07-11T21:28:00.812Z,19.00
2018-07-11T21:30:34.690Z,19.00
2018-07-11T21:33:08.338Z,19.00
2018-07-11T21:35:42.101Z,19.00
2018-07-11T21:38:15.758Z,19.10
2018-07-11T21:40:49.656Z,19.00
2018-07-11T21:43:24.212Z,18.90
2018-07-11T21:45:58.086Z,18.90
2018-07-11T21:48:31.960Z,18.90
2018-07-11T21:51:05.860Z,18.90
2018-07-11T21:53:39.641Z,18.80
2018-07-11T21:56:13.379Z,18.70
2018-07-11T21:58:48.047Z,18.60
2018-07-11T22:01:21.720Z,18.60
2018-07-11T22:03:55.400Z,18.60
2018-07-11T22:06:29.315Z,18.70
2018-07-11T22:09:02.939Z,18.70
2018-07-11T22:11:36.726Z,18.70
2018-07-11T22:14:10.557Z,18.70
2018-07-11T22:16:44.513Z,18.70
2018-07-11T22:19:18.349Z,18.70
2018-07-11T22:21:51.694Z,18.70
2018-07-11T22:24:24.897Z,18.70
2018-07-11T22:26:59.076Z,18.70
2018-07-11T22:29:32.263Z,18.70
2018-07-11T22:32:05.494Z,18.70
2018-07-11T22:34:38.940Z,18.70
2018-07-11T22:37:12.096Z,18.60
2018-07-11T22:39:45.293Z,18.60
2018-07-11T22:42:18.700Z,18.60
2018-07-11T22:44:51.941Z,18.50
2018-07-11T22:47:25.238Z,18.50
2018-07-11T22:49:58.404Z,18.40
2018-07-11T22:52:31.701Z,18.40
2018-07-11T22:55:05.830Z,18.40
2018-07-11T22:57:39.672Z,18.40
2018-07-11T23:00:12.847Z,18.40
2018-07-11T23:02:46.028Z,18.40
2018-07-11T23:05:19.304Z,18.40
2018-07-11T23:07:52.498Z,18.40
2018-07-11T23:10:25.708Z,18.40
2018-07-11T23:12:59.078Z,18.40
2018-07-11T23:15:32.272Z,18.40
2018-07-11T23:18:05.646Z,18.50
2018-07-11T23:20:38.794Z,18.50
2018-07-11T23:23:12.848Z,18.50
2018-07-11T23:25:46.092Z,18.50
2018-07-11T23:28:19.287Z,18.50
2018-07-11T23:30:53.247Z,18.50
2018-07-11T23:33:27.239Z,18.50
2018-07-11T23:36:00.433Z,18.50
2018-07-11T23:38:34.504Z,18.40
2018-07-11T23:41:07.883Z,18.40
2018-07-11T23:43:41.840Z,18.50
2018-07-11T23:46:15.804Z,18.40
2018-07-11T23:48:49.157Z,18.30
2018-07-11T23:51:23.077Z,18.40
2018-07-11T23:53:56.349Z,18.40
2018-07-11T23:56:30.406Z,18.40
2018-07-11T23:59:03.756Z,18.40
